Time;durP1;ratioP1;P1;durP2;ratioP2;P2;SDS_P1;SDS_P2;PMS_P1;PMS_P2;Temp;Humidity;BMP_temperature;BMP_pressure;BME280_temperature;BME280_humidity;BME280_pressure;Samples;Min_cycle;Max_cycle;Signal;HPM_P1;HPM_P2
2021/12/20 00:00:30;;;;;;;11.67;3.70;;;6.20;99.90;;;;;;5076390;28;20222;-62
2021/12/20 00:03:00;;;;;;;15.83;3.80;;;6.20;99.90;;;;;;5075263;28;21139;-58
2021/12/20 00:05:27;;;;;;;12.97;2.93;;;6.20;99.90;;;;;;5077269;28;20570;-58
2021/12/20 00:07:55;;;;;;;16.57;3.60;;;6.10;99.90;;;;;;5078423;28;20237;-59
2021/12/20 00:10:22;;;;;;;18.90;3.30;;;6.10;99.90;;;;;;5078552;28;20306;-57
2021/12/20 00:12:50;;;;;;;12.50;3.30;;;6.00;99.90;;;;;;5075744;28;20203;-58
2021/12/20 00:15:18;;;;;;;17.23;3.80;;;6.00;99.90;;;;;;5076808;28;20240;-57
2021/12/20 00:17:45;;;;;;;15.67;4.17;;;5.90;99.90;;;;;;5074645;28;20198;-56
2021/12/20 00:20:19;;;;;;;14.07;3.63;;;5.90;99.90;;;;;;5092653;28;20218;-57
2021/12/20 00:22:47;;;;;;;12.67;3.63;;;5.70;99.90;;;;;;5078111;28;20198;-57
2021/12/20 00:25:14;;;;;;;16.63;3.80;;;5.60;99.90;;;;;;5079580;28;20195;-57
2021/12/20 00:27:41;;;;;;;22.50;4.33;;;5.50;1.00;;;;;;5079283;28;20607;-56
2021/12/20 00:30:10;;;;;;;21.27;3.77;;;5.30;1.00;;;;;;5077056;28;20229;-56
2021/12/20 00:32:38;;;;;;;21.37;4.17;;;5.20;1.00;;;;;;5077387;28;20209;-57
2021/12/20 00:35:06;;;;;;;19.93;3.70;;;5.00;1.00;;;;;;5077309;28;20641;-56
2021/12/20 00:40:23;;;;;;;24.57;3.80;;;5.00;1.00;;;;;;5076051;28;20362;-57
2021/12/20 00:42:53;;;;;;;17.03;3.77;;;5.00;74.70;;;;;;5079758;28;20191;-57
2021/12/20 00:45:22;;;;;;;21.87;4.30;;;5.00;99.90;;;;;;5076670;28;20267;-56
2021/12/20 00:47:50;;;;;;;18.23;4.33;;;5.00;99.90;;;;;;5093486;28;20194;-56
2021/12/20 00:50:18;;;;;;;22.70;3.97;;;5.00;81.00;;;;;;5078240;28;20200;-56
2021/12/20 00:52:47;;;;;;;28.27;4.30;;;5.00;20.50;;;;;;5077154;28;20315;-57
2021/12/20 00:55:16;;;;;;;14.03;3.97;;;4.90;20.60;;;;;;5079983;28;20827;-56
2021/12/20 00:57:45;;;;;;;15.73;3.70;;;4.90;30.30;;;;;;5077503;28;20202;-57
2021/12/20 01:00:14;;;;;;;14.23;3.37;;;4.90;1.00;;;;;;5077893;28;20227;-57
2021/12/20 01:02:42;;;;;;;21.80;4.40;;;4.70;1.00;;;;;;5094751;28;20222;-57
2021/12/20 01:05:10;;;;;;;13.83;3.50;;;4.60;1.00;;;;;;5080318;28;20214;-57
2021/12/20 01:07:37;;;;;;;18.33;4.07;;;4.60;99.90;;;;;;5076748;28;20198;-57
2021/12/20 01:10:07;;;;;;;14.43;3.40;;;4.70;99.90;;;;;;5078153;28;20263;-57
2021/12/20 01:12:47;;;;;;;16.00;3.73;;;4.70;99.90;;;;;;5076218;28;20240;-56
2021/12/20 01:15:24;;;;;;;21.10;5.30;;;4.80;99.90;;;;;;5075515;28;20194;-59
2021/12/20 01:17:52;;;;;;;19.70;3.57;;;4.90;99.90;;;;;;5076262;28;20277;-57
2021/12/20 01:20:20;;;;;;;15.83;4.37;;;4.90;99.90;;;;;;5076338;28;20218;-57
2021/12/20 01:22:49;;;;;;;23.00;5.50;;;4.90;99.90;;;;;;5079707;28;20190;-56
2021/12/20 01:25:18;;;;;;;26.70;5.30;;;5.00;99.90;;;;;;5073234;28;20918;-56
2021/12/20 01:27:46;;;;;;;24.23;3.93;;;5.00;99.90;;;;;;5078809;28;20303;-57
2021/12/20 01:30:16;;;;;;;17.23;3.93;;;5.00;99.90;;;;;;5081451;28;20230;-57
2021/12/20 01:32:43;;;;;;;20.73;4.93;;;5.00;99.90;;;;;;5079585;28;20286;-56
2021/12/20 01:35:11;;;;;;;16.83;4.20;;;5.10;99.90;;;;;;5078509;28;20191;-56
2021/12/20 01:37:39;;;;;;;15.63;4.50;;;5.10;86.20;;;;;;5095867;28;20275;-58
2021/12/20 01:40:09;;;;;;;17.93;4.40;;;5.10;40.20;;;;;;5066124;28;20229;-56
2021/12/20 01:42:36;;;;;;;23.97;4.80;;;5.10;1.00;;;;;;5080972;28;20198;-58
2021/12/20 01:45:09;;;;;;;21.10;4.83;;;5.10;1.00;;;;;;5075126;28;20206;-56
2021/12/20 01:47:42;;;;;;;18.10;4.63;;;5.10;1.00;;;;;;5071886;28;20186;-58
2021/12/20 01:50:18;;;;;;;15.97;4.13;;;5.10;1.00;;;;;;5072996;28;20285;-57
2021/12/20 01:52:45;;;;;;;17.23;3.70;;;5.10;1.00;;;;;;5085837;28;20276;-56
2021/12/20 01:55:16;;;;;;;15.17;4.07;;;5.10;1.00;;;;;;5080545;28;20292;-57
2021/12/20 01:57:43;;;;;;;15.57;4.00;;;5.10;1.00;;;;;;5086461;28;20198;-57
2021/12/20 02:00:17;;;;;;;18.27;4.00;;;5.10;27.00;;;;;;5095878;28;20214;-56
2021/12/20 02:02:59;;;;;;;14.27;4.00;;;5.20;61.40;;;;;;5080588;28;20283;-57
2021/12/20 02:05:47;;;;;;;21.30;6.63;;;5.20;91.00;;;;;;5084858;28;20214;-57
2021/12/20 02:08:26;;;;;;;22.30;4.20;;;5.20;99.90;;;;;;5081572;28;20198;-58
2021/12/20 02:10:59;;;;;;;24.17;4.47;;;5.30;87.80;;;;;;5080154;28;20194;-57
2021/12/20 02:13:29;;;;;;;16.70;3.73;;;5.30;1.00;;;;;;5084688;28;20228;-58
2021/12/20 02:15:58;;;;;;;22.80;3.90;;;5.20;1.00;;;;;;5082251;28;20194;-56
2021/12/20 02:18:25;;;;;;;20.13;4.23;;;5.20;1.00;;;;;;5086022;28;20198;-57
2021/12/20 02:20:52;;;;;;;19.83;3.57;;;5.20;1.00;;;;;;5068234;28;20218;-57
2021/12/20 02:23:20;;;;;;;19.57;5.03;;;5.20;1.00;;;;;;5085412;28;20198;-57
2021/12/20 02:25:47;;;;;;;10.27;3.30;;;5.20;1.00;;;;;;5081385;28;20223;-56
2021/12/20 02:28:18;;;;;;;22.47;5.93;;;5.20;1.00;;;;;;5083052;28;20198;-57
2021/12/20 02:38:49;;;;;;;24.37;5.47;;;5.20;99.90;;;;;;5079863;28;20214;-57
2021/12/20 02:41:28;;;;;;;20.17;4.57;;;5.30;99.90;;;;;;5083720;28;20223;-57
2021/12/20 02:43:58;;;;;;;17.20;4.50;;;5.20;99.90;;;;;;5083124;28;20617;-56
2021/12/20 02:49:16;;;;;;;33.00;11.97;;;5.30;99.90;;;;;;5081492;28;20275;-60
2021/12/20 02:51:44;;;;;;;37.30;10.27;;;5.30;99.90;;;;;;5074670;28;20208;-57
2021/12/20 02:54:16;;;;;;;20.70;6.60;;;5.30;92.00;;;;;;5069713;28;20214;-57
2021/12/20 02:56:44;;;;;;;22.30;5.00;;;5.30;5.20;;;;;;5072404;28;20210;-57
2021/12/20 02:59:12;;;;;;;17.40;4.07;;;5.30;1.00;;;;;;5087831;28;20217;-58
2021/12/20 03:01:46;;;;;;;27.33;4.93;;;5.30;68.20;;;;;;5073358;28;20504;-57
2021/12/20 03:04:13;;;;;;;27.93;4.23;;;5.30;14.20;;;;;;5070102;28;20226;-57
2021/12/20 03:06:43;;;;;;;19.27;4.80;;;5.30;18.00;;;;;;5070922;28;20216;-57
2021/12/20 03:09:16;;;;;;;21.80;6.07;;;5.30;52.60;;;;;;5073629;28;20246;-57
2021/12/20 03:11:46;;;;;;;19.23;4.53;;;5.30;1.00;;;;;;5084119;28;20224;-57
2021/12/20 03:16:43;;;;;;;24.17;4.43;;;5.30;1.00;;;;;;5083500;28;20614;-57
2021/12/20 03:19:11;;;;;;;19.17;5.03;;;5.30;1.00;;;;;;5082802;28;20293;-57
2021/12/20 03:21:38;;;;;;;18.53;4.37;;;5.30;1.00;;;;;;5083213;28;20217;-56
2021/12/20 03:24:05;;;;;;;29.47;6.90;;;5.30;1.00;;;;;;5088183;28;20581;-57
2021/12/20 03:26:33;;;;;;;23.77;6.33;;;5.30;1.00;;;;;;5084252;28;20194;-56
2021/12/20 03:29:00;;;;;;;22.67;5.43;;;5.20;1.00;;;;;;5085009;28;20591;-56
2021/12/20 03:31:28;;;;;;;24.80;5.00;;;5.20;1.00;;;;;;5084124;28;20262;-56
2021/12/20 03:33:55;;;;;;;17.83;4.27;;;5.20;1.00;;;;;;5081064;28;20279;-56
2021/12/20 03:36:23;;;;;;;22.13;5.17;;;5.10;1.00;;;;;;5085475;28;20239;-56
2021/12/20 03:38:50;;;;;;;27.50;3.97;;;5.10;1.00;;;;;;5098121;28;20194;-57
2021/12/20 03:41:17;;;;;;;23.43;4.83;;;5.00;1.00;;;;;;5081435;28;20755;-56
2021/12/20 03:43:44;;;;;;;27.83;5.03;;;5.00;1.00;;;;;;5084190;28;20221;-56
2021/12/20 03:46:11;;;;;;;19.77;4.27;;;4.90;1.00;;;;;;5083354;28;20273;-56
2021/12/20 03:48:38;;;;;;;19.33;4.13;;;4.90;1.00;;;;;;5098244;28;20302;-56
2021/12/20 03:51:06;;;;;;;19.57;4.80;;;4.70;1.00;;;;;;5080164;28;20237;-57
2021/12/20 03:53:34;;;;;;;22.57;4.40;;;4.60;1.00;;;;;;5099062;28;20206;-57
2021/12/20 03:56:03;;;;;;;25.67;6.03;;;4.40;1.00;;;;;;5081616;28;20226;-57
2021/12/20 03:58:31;;;;;;;22.83;5.07;;;4.20;1.00;;;;;;5083456;28;20244;-56
2021/12/20 04:01:00;;;;;;;27.23;4.93;;;4.00;99.90;;;;;;5081690;28;20757;-56
2021/12/20 04:03:30;;;;;;;37.50;6.20;;;4.00;99.90;;;;;;5081894;28;20186;-57
2021/12/20 04:05:58;;;;;;;31.60;5.67;;;3.90;99.90;;;;;;5083532;28;20296;-56
2021/12/20 04:08:25;;;;;;;37.43;5.37;;;3.80;1.00;;;;;;5072338;28;20278;-56
2021/12/20 04:10:52;;;;;;;24.13;5.00;;;3.70;1.00;;;;;;5080516;28;20225;-57
2021/12/20 04:13:19;;;;;;;28.00;5.47;;;3.70;1.00;;;;;;5082341;28;20202;-57
2021/12/20 04:15:46;;;;;;;30.17;5.97;;;3.70;1.00;;;;;;5082735;28;20207;-57
2021/12/20 04:18:13;;;;;;;25.57;5.57;;;3.60;1.00;;;;;;5082080;28;20218;-57
2021/12/20 04:20:40;;;;;;;33.17;5.40;;;3.60;1.00;;;;;;5081545;28;20321;-56
2021/12/20 04:23:07;;;;;;;26.50;5.30;;;3.50;1.00;;;;;;5083859;28;20275;-57
2021/12/20 04:25:34;;;;;;;35.10;5.37;;;3.50;1.00;;;;;;5082404;28;20537;-57
2021/12/20 04:28:01;;;;;;;28.50;6.47;;;3.40;1.00;;;;;;5081936;28;20186;-56
2021/12/20 04:30:30;;;;;;;31.20;6.77;;;3.40;1.00;;;;;;5079292;28;20317;-57
2021/12/20 04:32:58;;;;;;;39.53;5.57;;;3.30;93.50;;;;;;5084519;28;20270;-57
2021/12/20 04:35:25;;;;;;;26.10;5.90;;;3.30;99.90;;;;;;5080598;28;20298;-57
2021/12/20 04:37:53;;;;;;;22.97;5.23;;;3.30;99.90;;;;;;5091378;28;20720;-59
2021/12/20 04:40:22;;;;;;;33.60;5.77;;;3.20;99.90;;;;;;5097699;28;20186;-57
2021/12/20 04:42:58;;;;;;;33.47;5.40;;;3.20;99.90;;;;;;5082941;28;20247;-56
2021/12/20 04:45:27;;;;;;;42.40;6.53;;;3.10;99.90;;;;;;5080795;28;20313;-57
2021/12/20 04:47:54;;;;;;;25.97;6.43;;;3.10;99.90;;;;;;5081439;28;20231;-57
2021/12/20 04:50:21;;;;;;;31.00;7.27;;;3.00;1.00;;;;;;5097758;28;20205;-57
2021/12/20 04:52:49;;;;;;;26.77;6.03;;;3.00;1.00;;;;;;5080594;28;20222;-57
2021/12/20 04:55:16;;;;;;;27.97;6.77;;;2.90;1.00;;;;;;5079293;28;20736;-57
2021/12/20 04:57:44;;;;;;;37.27;6.73;;;2.90;1.00;;;;;;5084337;28;20187;-56
2021/12/20 05:00:15;;;;;;;30.70;6.63;;;2.90;1.00;;;;;;5082931;28;20244;-58
2021/12/20 05:02:42;;;;;;;41.80;7.30;;;2.90;1.00;;;;;;5083923;28;20206;-57
2021/12/20 05:05:10;;;;;;;33.23;7.47;;;2.80;1.00;;;;;;5083449;28;21134;-57
2021/12/20 05:07:39;;;;;;;39.40;7.90;;;2.90;7.10;;;;;;5087456;28;20959;-58
2021/12/20 05:10:09;;;;;;;35.53;8.97;;;2.90;6.40;;;;;;5086087;28;20655;-58
2021/12/20 05:12:36;;;;;;;38.97;9.07;;;2.90;1.00;;;;;;5083441;28;20194;-59
2021/12/20 05:15:03;;;;;;;38.73;9.67;;;2.90;1.00;;;;;;5084853;28;20227;-59
2021/12/20 05:17:30;;;;;;;45.33;11.50;;;3.00;1.00;;;;;;5085251;28;20197;-59
2021/12/20 05:19:58;;;;;;;34.57;9.57;;;3.10;99.90;;;;;;5086350;28;20626;-59
2021/12/20 05:22:25;;;;;;;34.93;10.10;;;3.10;99.90;;;;;;5103901;28;20242;-57
2021/12/20 05:24:52;;;;;;;39.53;10.43;;;3.10;1.00;;;;;;5086808;28;20222;-57
2021/12/20 05:27:19;;;;;;;35.60;9.87;;;3.10;1.00;;;;;;5102544;28;20277;-56
2021/12/20 05:29:47;;;;;;;50.10;17.03;;;3.10;1.00;;;;;;5085180;28;20313;-59
2021/12/20 05:32:15;;;;;;;52.23;15.00;;;3.20;1.00;;;;;;5085073;28;20226;-59
2021/12/20 05:34:42;;;;;;;47.13;15.10;;;3.20;99.90;;;;;;5083256;28;20214;-58
2021/12/20 05:37:09;;;;;;;47.10;13.43;;;3.20;99.90;;;;;;5086179;28;20197;-56
2021/12/20 05:39:36;;;;;;;43.43;15.03;;;3.10;56.40;;;;;;5084311;28;20604;-57
2021/12/20 05:42:03;;;;;;;47.80;15.20;;;2.90;43.80;;;;;;5087099;28;20230;-56
2021/12/20 05:44:30;;;;;;;45.93;13.00;;;2.70;99.90;;;;;;5084336;28;20229;-56
2021/12/20 05:46:57;;;;;;;42.20;13.20;;;2.50;99.90;;;;;;5083374;28;20205;-56
2021/12/20 05:49:24;;;;;;;41.27;13.70;;;2.30;99.90;;;;;;5083639;28;20218;-56
2021/12/20 05:51:54;;;;;;;39.80;11.93;;;2.20;1.00;;;;;;5092304;28;20198;-56
2021/12/20 05:54:21;;;;;;;45.20;13.27;;;2.20;1.00;;;;;;5084687;28;20206;-58
2021/12/20 05:56:48;;;;;;;40.40;11.17;;;2.30;49.10;;;;;;5072204;28;20198;-59
2021/12/20 05:59:15;;;;;;;37.90;10.77;;;2.30;99.90;;;;;;5085948;28;20258;-58
2021/12/20 06:01:42;;;;;;;40.90;11.03;;;2.20;99.90;;;;;;5083035;28;20221;-58
2021/12/20 06:04:09;;;;;;;33.03;11.07;;;2.00;44.80;;;;;;5081515;28;21064;-58
2021/12/20 06:06:36;;;;;;;35.70;11.43;;;1.90;99.90;;;;;;5098642;28;20202;-58
2021/12/20 06:09:03;;;;;;;33.80;11.73;;;1.80;99.90;;;;;;5085012;28;20821;-59
2021/12/20 06:11:30;;;;;;;42.20;13.43;;;1.80;99.90;;;;;;5075927;28;20677;-58
2021/12/20 06:13:58;;;;;;;39.23;12.80;;;1.70;99.90;;;;;;5101310;28;20243;-58
2021/12/20 06:16:26;;;;;;;38.50;13.63;;;1.60;1.00;;;;;;5085445;28;20202;-58
2021/12/20 06:18:53;;;;;;;36.03;12.63;;;1.60;1.00;;;;;;5089456;28;20635;-58
2021/12/20 06:21:20;;;;;;;44.13;13.60;;;1.50;1.00;;;;;;5088004;28;20214;-58
2021/12/20 06:23:47;;;;;;;37.80;14.03;;;1.60;99.90;;;;;;5083091;28;20281;-59
2021/12/20 06:26:14;;;;;;;34.70;12.57;;;1.60;99.90;;;;;;5084446;28;20195;-59
2021/12/20 06:28:42;;;;;;;41.10;12.73;;;1.60;99.90;;;;;;5065528;28;20202;-58
2021/12/20 06:31:09;;;;;;;41.97;13.00;;;1.40;99.90;;;;;;5081847;28;20707;-59
2021/12/20 06:33:36;;;;;;;36.53;12.07;;;1.40;99.90;;;;;;5085437;28;20214;-58
2021/12/20 06:36:04;;;;;;;35.80;12.10;;;1.30;99.90;;;;;;5085083;28;20846;-58
2021/12/20 06:38:32;;;;;;;29.73;11.43;;;1.20;1.00;;;;;;5086077;28;20213;-59
2021/12/20 06:40:59;;;;;;;41.57;13.80;;;1.10;99.90;;;;;;5081064;28;20223;-58
2021/12/20 06:43:26;;;;;;;45.00;13.23;;;1.20;1.00;;;;;;5085217;28;20289;-58
2021/12/20 06:45:53;;;;;;;41.57;12.47;;;1.30;1.00;;;;;;5082972;28;20221;-58
2021/12/20 06:48:26;;;;;;;40.60;13.17;;;1.20;1.00;;;;;;5083862;28;20659;-58
2021/12/20 06:50:54;;;;;;;38.37;12.77;;;1.10;1.00;;;;;;5081971;28;20247;-59
2021/12/20 06:53:21;;;;;;;37.30;14.33;;;1.00;1.00;;;;;;5081577;28;20331;-58
2021/12/20 06:55:48;;;;;;;37.57;13.93;;;1.00;1.00;;;;;;5084128;28;20218;-58
2021/12/20 06:58:15;;;;;;;37.67;13.40;;;0.90;67.70;;;;;;5084446;28;20565;-58
2021/12/20 07:00:42;;;;;;;33.13;12.27;;;0.90;99.90;;;;;;5097238;28;20198;-58
2021/12/20 07:03:10;;;;;;;35.33;13.23;;;0.90;99.90;;;;;;5084022;28;20210;-58
2021/12/20 07:05:37;;;;;;;46.07;15.60;;;0.80;1.00;;;;;;5084423;28;20194;-58
2021/12/20 07:08:04;;;;;;;49.20;15.20;;;0.80;1.00;;;;;;5083327;28;20649;-58
2021/12/20 07:10:31;;;;;;;38.87;14.83;;;0.80;1.00;;;;;;5100600;28;20202;-58
2021/12/20 07:12:58;;;;;;;41.97;15.50;;;0.80;1.00;;;;;;5068116;28;20230;-58
2021/12/20 07:15:26;;;;;;;42.77;15.27;;;0.70;1.00;;;;;;5069875;28;20222;-58
2021/12/20 07:17:53;;;;;;;32.13;13.37;;;0.70;1.00;;;;;;5069993;28;20577;-58
2021/12/20 07:20:20;;;;;;;44.10;14.30;;;0.70;1.00;;;;;;5096354;28;20205;-58
2021/12/20 07:22:47;;;;;;;39.83;13.40;;;0.60;70.50;;;;;;5077854;28;20194;-58
2021/12/20 07:25:14;;;;;;;35.43;13.93;;;0.70;99.90;;;;;;5082942;28;20194;-58
2021/12/20 07:27:46;;;;;;;34.07;14.27;;;0.70;1.00;;;;;;5086754;28;20178;-58
2021/12/20 07:30:13;;;;;;;43.30;12.43;;;0.70;1.00;;;;;;5083088;28;20701;-57
2021/12/20 07:32:40;;;;;;;69.80;24.60;;;0.70;1.00;;;;;;5080433;28;20279;-57
2021/12/20 07:35:07;;;;;;;129.07;46.70;;;0.80;99.90;;;;;;5082313;28;20798;-58
2021/12/20 07:37:34;;;;;;;97.20;34.90;;;0.90;1.00;;;;;;5082853;28;20286;-58
2021/12/20 07:40:01;;;;;;;58.13;21.23;;;1.00;99.90;;;;;;5081478;28;20302;-58
2021/12/20 07:42:28;;;;;;;57.37;21.70;;;1.00;1.00;;;;;;5082427;28;20763;-58
2021/12/20 07:44:58;;;;;;;44.10;20.30;;;1.00;1.00;;;;;;5082747;28;20186;-58
2021/12/20 07:47:43;;;;;;;57.30;18.90;;;1.00;99.90;;;;;;5079212;28;20220;-58
2021/12/20 07:50:11;;;;;;;58.47;23.03;;;1.00;1.00;;;;;;5081896;28;20186;-58
2021/12/20 07:52:39;;;;;;;53.87;20.83;;;1.00;1.00;;;;;;5080704;28;20231;-58
2021/12/20 07:55:06;;;;;;;52.80;21.33;;;1.00;1.00;;;;;;5083054;28;20251;-57
2021/12/20 07:57:33;;;;;;;45.63;20.17;;;1.00;1.00;;;;;;5100351;28;20251;-57
2021/12/20 08:00:00;;;;;;;42.17;20.23;;;1.00;1.00;;;;;;5081357;28;20198;-58
2021/12/20 08:02:27;;;;;;;49.13;21.47;;;1.00;1.00;;;;;;5084125;28;20293;-58
2021/12/20 08:04:54;;;;;;;56.10;21.43;;;1.10;99.90;;;;;;5080582;28;20251;-58
2021/12/20 08:07:21;;;;;;;47.17;16.97;;;1.10;99.90;;;;;;5080782;28;20234;-58
2021/12/20 08:09:52;;;;;;;40.97;15.97;;;1.20;99.90;;;;;;5059048;28;21007;-57
2021/12/20 08:12:21;;;;;;;47.20;18.03;;;1.20;99.90;;;;;;5081901;28;20200;-58
2021/12/20 08:14:48;;;;;;;47.30;16.77;;;1.30;99.90;;;;;;5080838;28;20823;-58
2021/12/20 08:17:15;;;;;;;44.13;15.50;;;1.30;1.00;;;;;;5080664;28;20807;-57
2021/12/20 08:19:42;;;;;;;43.47;16.87;;;1.30;1.00;;;;;;5093639;28;20209;-58
2021/12/20 08:22:09;;;;;;;44.77;17.07;;;1.30;99.90;;;;;;5081305;28;20279;-58
2021/12/20 08:24:36;;;;;;;43.90;16.37;;;1.30;69.20;;;;;;5079570;28;20708;-58
2021/12/20 08:27:03;;;;;;;37.47;17.03;;;1.50;1.00;;;;;;5082100;28;20196;-58
2021/12/20 08:29:30;;;;;;;36.53;14.17;;;1.50;99.90;;;;;;5096677;28;20257;-58
2021/12/20 08:32:02;;;;;;;33.50;14.57;;;1.60;1.00;;;;;;5096807;28;20228;-58
2021/12/20 08:34:31;;;;;;;37.13;12.67;;;1.70;1.00;;;;;;5078931;28;20540;-58
2021/12/20 08:37:00;;;;;;;35.13;11.10;;;1.70;2.90;;;;;;5079906;28;20202;-56
2021/12/20 08:39:30;;;;;;;31.00;11.03;;;1.80;1.00;;;;;;5094991;28;20206;-58
2021/12/20 08:41:58;;;;;;;27.73;9.87;;;1.90;99.90;;;;;;5098782;28;20718;-58
2021/12/20 08:44:25;;;;;;;28.80;9.30;;;2.00;1.00;;;;;;5080186;28;20190;-58
2021/12/20 08:46:53;;;;;;;30.10;10.13;;;2.10;1.00;;;;;;5077647;28;22001;-57
2021/12/20 08:49:20;;;;;;;31.63;9.53;;;2.20;1.00;;;;;;5093903;28;20591;-56
2021/12/20 08:51:48;;;;;;;41.33;11.53;;;2.20;99.90;;;;;;5079464;28;20289;-57
2021/12/20 08:54:15;;;;;;;39.33;10.27;;;2.30;1.00;;;;;;5080474;28;20198;-58
2021/12/20 08:56:43;;;;;;;32.50;11.23;;;2.40;1.00;;;;;;5082754;28;20198;-57
2021/12/20 08:59:10;;;;;;;36.43;11.47;;;2.50;1.00;;;;;;5081123;28;20194;-57
2021/12/20 09:01:38;;;;;;;32.57;11.43;;;2.60;1.00;;;;;;5078975;28;20191;-58
2021/12/20 09:04:06;;;;;;;34.07;11.60;;;2.70;99.90;;;;;;5077169;28;21029;-57
2021/12/20 09:06:39;;;;;;;34.97;13.23;;;2.70;99.90;;;;;;5095423;28;20186;-56
2021/12/20 09:09:11;;;;;;;35.53;12.00;;;2.80;99.90;;;;;;5080849;28;20823;-57
2021/12/20 09:11:39;;;;;;;28.33;11.67;;;2.90;99.90;;;;;;5082590;28;20198;-58
2021/12/20 09:14:12;;;;;;;40.90;11.87;;;3.00;96.80;;;;;;5081277;28;20184;-57
2021/12/20 09:16:40;;;;;;;36.97;9.53;;;3.20;36.10;;;;;;5081122;28;20198;-58
2021/12/20 09:19:07;;;;;;;32.40;10.67;;;3.40;40.30;;;;;;5080566;28;20198;-57
2021/12/20 09:21:35;;;;;;;37.70;14.20;;;5.50;1.00;;;;;;5073166;28;21225;-56
2021/12/20 09:24:04;;;;;;;32.53;12.30;;;8.80;99.90;;;;;;5072155;28;20205;-56
2021/12/20 09:26:32;;;;;;;23.60;9.23;;;10.70;1.00;;;;;;5082364;28;20198;-57
2021/12/20 09:28:59;;;;;;;33.00;8.67;;;11.80;99.90;;;;;;5084965;28;20224;-59
2021/12/20 09:31:27;;;;;;;18.27;7.23;;;12.60;99.90;;;;;;5083522;28;20189;-59
2021/12/20 09:33:55;;;;;;;20.63;7.80;;;12.80;99.90;;;;;;5084104;28;20194;-59
2021/12/20 09:36:29;;;;;;;19.50;7.33;;;12.50;99.90;;;;;;5085232;28;20635;-59
2021/12/20 09:38:57;;;;;;;21.73;7.30;;;12.40;99.90;;;;;;5096991;28;20522;-60
2021/12/20 09:42:07;;;;;;;23.77;7.17;;;12.70;99.90;;;;;;5083425;28;20198;-59
2021/12/20 09:44:16;;;;;;;16.73;8.03;;;12.50;99.90;;;;;;5078645;28;20303;-59
2021/12/20 09:46:43;;;;;;;17.97;7.37;;;12.30;99.90;;;;;;5083637;28;20202;-59
2021/12/20 09:49:10;;;;;;;28.97;7.97;;;12.20;99.90;;;;;;5085342;28;20665;-59
2021/12/20 09:51:37;;;;;;;19.07;7.80;;;13.20;99.90;;;;;;5086732;28;20194;-60
2021/12/20 09:54:05;;;;;;;23.30;8.20;;;13.20;99.90;;;;;;5086376;28;20198;-60
2021/12/20 09:56:33;;;;;;;24.33;8.13;;;13.00;99.90;;;;;;5103669;28;20240;-60
2021/12/20 09:59:00;;;;;;;25.65;8.50;;;13.30;99.90;;;;;;5085329;28;20190;-59
2021/12/20 10:01:28;;;;;;;19.80;8.20;;;13.30;99.90;;;;;;5086101;28;20235;-60
2021/12/20 10:03:56;;;;;;;23.07;8.87;;;12.80;99.90;;;;;;5085344;28;20214;-58
2021/12/20 10:06:24;;;;;;;24.20;8.50;;;12.70;99.90;;;;;;5085618;28;20206;-58
2021/12/20 10:08:53;;;;;;;25.42;8.82;;;13.30;99.90;;;;;;5089454;28;20191;-58
2021/12/20 10:11:29;;;;;;;20.92;8.38;;;15.10;99.90;;;;;;5086722;28;20199;-59
2021/12/20 10:14:06;;;;;;;27.73;9.25;;;15.70;99.90;;;;;;5086664;28;20190;-59
2021/12/20 10:16:36;;;;;;;24.33;8.18;;;13.50;99.90;;;;;;5101313;28;20205;-58
2021/12/20 10:19:05;;;;;;;24.15;9.18;;;14.40;99.90;;;;;;5084847;28;20194;-58
2021/12/20 10:21:41;;;;;;;26.52;9.73;;;12.50;99.90;;;;;;5084337;28;20259;-58
2021/12/20 10:24:08;;;;;;;24.13;8.77;;;13.90;99.90;;;;;;5080995;28;20218;-58
2021/12/20 10:26:42;;;;;;;24.15;9.52;;;14.00;99.90;;;;;;5071984;28;20202;-58
2021/12/20 10:29:18;;;;;;;23.83;8.68;;;13.20;99.90;;;;;;5071149;28;20329;-58
2021/12/20 10:31:45;;;;;;;19.98;8.40;;;14.70;99.90;;;;;;5083197;28;20182;-58
2021/12/20 10:34:14;;;;;;;25.58;9.65;;;15.70;99.90;;;;;;5083206;28;20198;-58
2021/12/20 10:36:55;;;;;;;22.55;9.52;;;16.40;99.90;;;;;;5082270;28;20214;-58
2021/12/20 10:39:47;;;;;;;18.58;8.95;;;14.50;99.90;;;;;;5084976;28;20217;-58
2021/12/20 10:42:28;;;;;;;23.42;9.43;;;15.90;99.90;;;;;;5086727;28;20263;-58
2021/12/20 10:45:09;;;;;;;20.98;9.38;;;15.30;99.90;;;;;;5084861;28;20182;-59
2021/12/20 10:47:37;;;;;;;21.80;9.00;;;14.20;99.90;;;;;;5084103;28;20194;-59
2021/12/20 10:50:32;;;;;;;23.05;9.27;;;13.10;99.90;;;;;;5083530;28;20561;-59
2021/12/20 10:53:16;;;;;;;24.10;10.30;;;12.50;99.90;;;;;;5082934;28;20221;-58
2021/12/20 10:55:53;;;;;;;27.90;10.93;;;13.20;99.90;;;;;;5079976;28;20202;-59
2021/12/20 10:58:38;;;;;;;31.63;10.70;;;12.50;99.90;;;;;;5083830;28;20682;-58
2021/12/20 11:04:20;;;;;;;41.13;11.33;;;12.30;99.90;;;;;;5083655;28;20226;-59
2021/12/20 11:09:24;;;;;;;30.87;12.10;;;11.60;99.90;;;;;;5083508;28;20197;-59
2021/12/20 11:11:56;;;;;;;26.73;11.70;;;11.10;1.00;;;;;;5081308;28;20194;-59
2021/12/20 11:14:48;;;;;;;30.03;11.10;;;9.30;40.50;;;;;;5082354;28;20228;-59
2021/12/20 11:17:18;;;;;;;35.77;12.07;;;8.60;99.90;;;;;;5073723;28;20281;-57
2021/12/20 11:19:51;;;;;;;30.07;11.43;;;8.40;99.90;;;;;;5065411;28;20198;-57
2021/12/20 11:22:21;;;;;;;31.23;11.43;;;7.80;99.90;;;;;;5081871;28;20194;-56
2021/12/20 11:24:52;;;;;;;45.63;12.27;;;6.70;1.00;;;;;;5082328;28;20194;-56
2021/12/20 11:27:29;;;;;;;33.07;12.70;;;6.00;99.90;;;;;;5084065;28;20218;-58
2021/12/20 11:30:13;;;;;;;37.90;13.00;;;5.60;99.90;;;;;;5095408;28;20255;-56
2021/12/20 11:32:42;;;;;;;42.90;13.30;;;5.30;1.00;;;;;;5072475;28;20305;-57
2021/12/20 11:35:14;;;;;;;40.30;13.53;;;5.20;1.00;;;;;;5099815;28;20200;-56
2021/12/20 11:37:42;;;;;;;43.40;13.87;;;4.90;9.70;;;;;;5081282;28;20202;-57
2021/12/20 11:40:12;;;;;;;43.37;12.97;;;5.20;1.00;;;;;;5079922;28;20201;-58
2021/12/20 11:42:39;;;;;;;35.70;13.67;;;5.00;1.00;;;;;;5083316;28;20323;-58
2021/12/20 11:45:09;;;;;;;38.77;13.63;;;4.90;3.10;;;;;;5079489;28;20195;-57
2021/12/20 11:47:54;;;;;;;38.63;13.83;;;5.00;16.30;;;;;;5080342;28;20202;-57
2021/12/20 11:50:29;;;;;;;35.27;15.60;;;5.80;1.00;;;;;;5076062;28;20201;-57
2021/12/20 11:53:11;;;;;;;35.47;13.20;;;6.40;99.90;;;;;;5076999;28;20202;-60
2021/12/20 11:55:45;;;;;;;31.87;12.73;;;6.80;99.90;;;;;;5061572;28;20225;-60
2021/12/20 11:58:18;;;;;;;42.13;13.10;;;6.60;1.00;;;;;;5084311;28;20221;-60
2021/12/20 12:01:09;;;;;;;35.03;13.73;;;6.70;98.00;;;;;;5082026;28;20289;-61
2021/12/20 12:03:39;;;;;;;35.67;12.10;;;6.60;99.90;;;;;;5069939;28;20252;-61
2021/12/20 12:06:08;;;;;;;26.17;11.93;;;6.80;39.70;;;;;;5078107;28;20197;-61
2021/12/20 12:08:39;;;;;;;35.90;13.67;;;6.60;99.90;;;;;;5084318;28;20226;-61
2021/12/20 12:11:06;;;;;;;29.20;13.00;;;6.50;99.90;;;;;;5082942;28;20217;-62
2021/12/20 12:13:47;;;;;;;27.90;12.53;;;6.30;99.90;;;;;;5099079;28;20214;-61
2021/12/20 12:16:27;;;;;;;26.90;12.93;;;6.00;99.90;;;;;;5098483;28;20194;-60
2021/12/20 12:18:57;;;;;;;33.77;13.60;;;5.70;1.00;;;;;;5083964;28;20201;-61
2021/12/20 12:21:31;;;;;;;35.23;14.10;;;5.50;1.00;;;;;;5079399;28;20218;-61
2021/12/20 12:24:36;;;;;;;29.83;13.13;;;5.40;1.00;;;;;;5079343;28;20206;-61
2021/12/20 12:27:19;;;;;;;36.70;13.47;;;5.10;1.00;;;;;;5059206;28;20198;-60
2021/12/20 12:29:46;;;;;;;36.10;14.77;;;5.20;1.00;;;;;;5080894;28;20218;-60
2021/12/20 12:32:13;;;;;;;28.93;14.00;;;5.20;1.00;;;;;;5083575;28;20218;-62
2021/12/20 12:34:42;;;;;;;28.73;12.80;;;5.10;1.00;;;;;;5073951;28;23213;-61
2021/12/20 12:37:27;;;;;;;29.67;14.73;;;4.90;1.00;;;;;;5067641;28;20194;-61
2021/12/20 12:40:27;;;;;;;38.00;12.80;;;5.20;1.00;;;;;;5069664;28;21193;-62
2021/12/20 12:42:57;;;;;;;30.77;12.63;;;5.10;1.00;;;;;;5069022;28;20271;-62
2021/12/20 12:45:48;;;;;;;27.97;11.77;;;5.00;1.00;;;;;;5071030;28;20194;-61
2021/12/20 12:48:34;;;;;;;24.00;14.67;;;4.90;1.00;;;;;;5083051;28;20182;-61
2021/12/20 12:51:19;;;;;;;21.67;11.53;;;4.50;1.00;;;;;;5099839;28;20186;-61
2021/12/20 12:53:53;;;;;;;24.63;12.43;;;4.50;1.00;;;;;;5099920;28;20229;-61
2021/12/20 12:56:29;;;;;;;31.87;13.43;;;4.90;1.00;;;;;;5080447;28;20206;-60
2021/12/20 12:59:12;;;;;;;23.90;12.73;;;5.20;1.00;;;;;;5080317;28;20201;-60
2021/12/20 13:01:47;;;;;;;30.83;12.70;;;5.10;1.00;;;;;;5099459;28;20721;-61
2021/12/20 13:04:15;;;;;;;34.43;11.87;;;4.90;1.00;;;;;;5060777;28;20214;-62
2021/12/20 13:06:42;;;;;;;27.87;12.73;;;4.50;1.00;;;;;;5076823;28;20194;-63
2021/12/20 13:09:10;;;;;;;34.17;13.57;;;4.40;5.90;;;;;;5080640;28;20711;-63
2021/12/20 13:11:37;;;;;;;32.70;15.17;;;4.60;45.10;;;;;;5081764;28;20244;-60
2021/12/20 13:14:08;;;;;;;38.70;12.97;;;4.50;27.00;;;;;;5076012;28;20194;-61
2021/12/20 13:16:38;;;;;;;30.80;11.87;;;4.50;6.90;;;;;;5079093;28;20231;-63
2021/12/20 13:19:06;;;;;;;49.07;13.40;;;4.20;99.90;;;;;;5078971;28;20194;-61
2021/12/20 13:21:37;;;;;;;36.30;12.00;;;4.30;99.90;;;;;;5081011;28;20298;-61